sensor_id;sensor_type;location;lat;lon;timestamp;pressure;altitude;pressure_sealevel;temperature;humidity
22755;BME280;11544;42.020;23.094;2022-09-17T00:01:07;96263.56;;;21.12;80.26
22755;BME280;11544;42.020;23.094;2022-09-17T00:03:34;96267.00;;;21.42;79.82
22755;BME280;11544;42.020;23.094;2022-09-17T00:06:05;96280.03;;;21.06;81.02
22755;BME280;11544;42.020;23.094;2022-09-17T00:08:32;96274.22;;;20.93;81.91
22755;BME280;11544;42.020;23.094;2022-09-17T00:11:08;96267.31;;;21.20;75.01
22755;BME280;11544;42.020;23.094;2022-09-17T00:13:35;96277.56;;;21.52;72.88
22755;BME280;11544;42.020;23.094;2022-09-17T00:16:01;96268.50;;;21.54;72.47
22755;BME280;11544;42.020;23.094;2022-09-17T00:18:26;96283.56;;;21.54;71.60
22755;BME280;11544;42.020;23.094;2022-09-17T00:20:52;96278.63;;;21.12;75.58
22755;BME280;11544;42.020;23.094;2022-09-17T00:23:18;96273.19;;;21.04;77.70
22755;BME280;11544;42.020;23.094;2022-09-17T00:25:44;96272.41;;;20.84;77.10
22755;BME280;11544;42.020;23.094;2022-09-17T00:30:56;96268.34;;;20.80;78.85
22755;BME280;11544;42.020;23.094;2022-09-17T00:33:22;96244.78;;;20.96;77.10
22755;BME280;11544;42.020;23.094;2022-09-17T00:35:57;96245.72;;;21.14;74.85
22755;BME280;11544;42.020;23.094;2022-09-17T00:38:23;96262.50;;;20.66;79.21
22755;BME280;11544;42.020;23.094;2022-09-17T00:40:49;96265.41;;;20.54;80.21
22755;BME280;11544;42.020;23.094;2022-09-17T00:43:32;96274.34;;;20.82;80.62
22755;BME280;11544;42.020;23.094;2022-09-17T00:45:58;96274.78;;;20.77;80.94
22755;BME280;11544;42.020;23.094;2022-09-17T00:48:24;96281.28;;;21.02;79.23
22755;BME280;11544;42.020;23.094;2022-09-17T00:50:51;96290.34;;;21.00;79.14
22755;BME280;11544;42.020;23.094;2022-09-17T00:53:19;96280.72;;;20.50;80.67
22755;BME280;11544;42.020;23.094;2022-09-17T00:56:10;96271.28;;;20.86;75.59
22755;BME280;11544;42.020;23.094;2022-09-17T00:58:38;96268.28;;;21.19;76.89
22755;BME280;11544;42.020;23.094;2022-09-17T01:01:04;96273.66;;;20.80;76.39
22755;BME280;11544;42.020;23.094;2022-09-17T01:03:30;96269.88;;;20.53;77.97
22755;BME280;11544;42.020;23.094;2022-09-17T01:06:11;96271.00;;;20.80;78.53
22755;BME280;11544;42.020;23.094;2022-09-17T01:09:04;96269.00;;;20.23;79.63
22755;BME280;11544;42.020;23.094;2022-09-17T01:28:20;96270.13;;;20.40;79.60
22755;BME280;11544;42.020;23.094;2022-09-17T01:33:34;96288.72;;;20.09;81.40
22755;BME280;11544;42.020;23.094;2022-09-17T01:36:34;96276.28;;;20.50;80.89
22755;BME280;11544;42.020;23.094;2022-09-17T01:39:11;96275.59;;;20.78;79.14
22755;BME280;11544;42.020;23.094;2022-09-17T01:44:20;96265.44;;;20.63;75.40
22755;BME280;11544;42.020;23.094;2022-09-17T01:46:52;96241.53;;;21.22;67.35
22755;BME280;11544;42.020;23.094;2022-09-17T01:49:21;96234.53;;;21.21;68.11
22755;BME280;11544;42.020;23.094;2022-09-17T01:51:50;96245.47;;;20.79;70.79
22755;BME280;11544;42.020;23.094;2022-09-17T01:54:22;96248.13;;;20.69;73.41
22755;BME280;11544;42.020;23.094;2022-09-17T01:56:57;96252.91;;;20.65;74.74
22755;BME280;11544;42.020;23.094;2022-09-17T01:59:30;96239.75;;;20.83;70.52
22755;BME280;11544;42.020;23.094;2022-09-17T02:02:07;96233.34;;;21.05;67.45
22755;BME280;11544;42.020;23.094;2022-09-17T02:04:45;96230.56;;;20.87;68.51
22755;BME280;11544;42.020;23.094;2022-09-17T02:07:17;96240.22;;;21.35;72.51
22755;BME280;11544;42.020;23.094;2022-09-17T02:10:06;96243.25;;;20.45;71.97
22755;BME280;11544;42.020;23.094;2022-09-17T02:12:41;96229.16;;;21.03;70.03
22755;BME280;11544;42.020;23.094;2022-09-17T02:15:16;96231.00;;;20.63;71.42
22755;BME280;11544;42.020;23.094;2022-09-17T02:17:49;96233.94;;;20.70;71.24
22755;BME280;11544;42.020;23.094;2022-09-17T02:20:17;96219.25;;;21.05;69.76
22755;BME280;11544;42.020;23.094;2022-09-17T02:22:55;96228.38;;;21.40;65.43
22755;BME280;11544;42.020;23.094;2022-09-17T02:25:35;96229.03;;;20.85;68.61
22755;BME280;11544;42.020;23.094;2022-09-17T02:28:09;96247.00;;;20.42;70.69
22755;BME280;11544;42.020;23.094;2022-09-17T02:30:37;96237.41;;;20.32;73.20
22755;BME280;11544;42.020;23.094;2022-09-17T02:33:05;96226.25;;;20.67;72.41
22755;BME280;11544;42.020;23.094;2022-09-17T02:35:34;96231.53;;;20.47;73.73
22755;BME280;11544;42.020;23.094;2022-09-17T02:38:03;96225.13;;;20.21;75.15
22755;BME280;11544;42.020;23.094;2022-09-17T02:43:37;96225.53;;;20.26;78.89
22755;BME280;11544;42.020;23.094;2022-09-17T02:46:18;96227.06;;;20.09;78.53
22755;BME280;11544;42.020;23.094;2022-09-17T02:53:55;96189.50;;;20.15;76.30
22755;BME280;11544;42.020;23.094;2022-09-17T02:56:32;96185.44;;;20.40;80.77
22755;BME280;11544;42.020;23.094;2022-09-17T02:59:10;96185.16;;;20.04;79.12
22755;BME280;11544;42.020;23.094;2022-09-17T03:01:46;96178.06;;;20.34;81.13
22755;BME280;11544;42.020;23.094;2022-09-17T03:04:15;96171.50;;;20.19;80.18
22755;BME280;11544;42.020;23.094;2022-09-17T03:06:45;96188.50;;;20.36;80.99
22755;BME280;11544;42.020;23.094;2022-09-17T03:09:13;96193.91;;;19.95;82.12
22755;BME280;11544;42.020;23.094;2022-09-17T03:11:40;96208.34;;;19.72;83.51
22755;BME280;11544;42.020;23.094;2022-09-17T03:14:06;96206.91;;;20.18;85.06
22755;BME280;11544;42.020;23.094;2022-09-17T03:16:32;96193.59;;;19.79;83.27
22755;BME280;11544;42.020;23.094;2022-09-17T03:18:57;96187.50;;;20.07;83.02
22755;BME280;11544;42.020;23.094;2022-09-17T03:21:23;96175.56;;;20.33;80.71
22755;BME280;11544;42.020;23.094;2022-09-17T03:23:48;96172.91;;;20.23;79.49
22755;BME280;11544;42.020;23.094;2022-09-17T03:26:14;96160.25;;;20.56;77.97
22755;BME280;11544;42.020;23.094;2022-09-17T03:28:40;96166.22;;;20.09;78.77
22755;BME280;11544;42.020;23.094;2022-09-17T03:31:05;96170.81;;;19.97;80.18
22755;BME280;11544;42.020;23.094;2022-09-17T03:33:31;96166.38;;;20.27;79.09
22755;BME280;11544;42.020;23.094;2022-09-17T03:35:57;96154.09;;;20.55;78.22
22755;BME280;11544;42.020;23.094;2022-09-17T03:38:23;96150.34;;;20.09;79.09
22755;BME280;11544;42.020;23.094;2022-09-17T03:41:03;96132.91;;;20.45;77.48
22755;BME280;11544;42.020;23.094;2022-09-17T03:43:29;96135.03;;;20.42;76.44
22755;BME280;11544;42.020;23.094;2022-09-17T03:45:55;96135.72;;;20.24;77.04
22755;BME280;11544;42.020;23.094;2022-09-17T03:48:21;96124.59;;;20.21;78.77
22755;BME280;11544;42.020;23.094;2022-09-17T03:50:47;96107.44;;;20.35;75.75
22755;BME280;11544;42.020;23.094;2022-09-17T03:53:14;96108.50;;;21.08;71.23
22755;BME280;11544;42.020;23.094;2022-09-17T03:55:40;96113.69;;;21.10;73.99
22755;BME280;11544;42.020;23.094;2022-09-17T03:58:05;96105.03;;;20.70;77.35
22755;BME280;11544;42.020;23.094;2022-09-17T04:00:32;96114.25;;;20.57;75.91
22755;BME280;11544;42.020;23.094;2022-09-17T04:02:58;96116.34;;;20.53;78.05
22755;BME280;11544;42.020;23.094;2022-09-17T04:05:23;96121.63;;;20.34;77.64
22755;BME280;11544;42.020;23.094;2022-09-17T04:07:49;96130.41;;;20.24;78.91
22755;BME280;11544;42.020;23.094;2022-09-17T04:10:15;96129.88;;;20.11;80.21
22755;BME280;11544;42.020;23.094;2022-09-17T04:12:41;96123.75;;;20.20;79.90
22755;BME280;11544;42.020;23.094;2022-09-17T04:15:07;96131.25;;;19.96;81.51
22755;BME280;11544;42.020;23.094;2022-09-17T04:17:33;96140.47;;;20.11;81.37
22755;BME280;11544;42.020;23.094;2022-09-17T04:19:59;96154.25;;;19.95;82.30
22755;BME280;11544;42.020;23.094;2022-09-17T04:22:24;96158.53;;;19.86;83.56
22755;BME280;11544;42.020;23.094;2022-09-17T04:24:50;96171.63;;;19.98;82.10
22755;BME280;11544;42.020;23.094;2022-09-17T04:27:16;96172.09;;;19.62;82.82
22755;BME280;11544;42.020;23.094;2022-09-17T04:29:41;96192.78;;;19.78;83.28
22755;BME280;11544;42.020;23.094;2022-09-17T04:32:07;96198.94;;;20.08;82.70
22755;BME280;11544;42.020;23.094;2022-09-17T04:34:33;96209.50;;;19.98;82.55
22755;BME280;11544;42.020;23.094;2022-09-17T04:36:59;96237.47;;;19.91;82.66
22755;BME280;11544;42.020;23.094;2022-09-17T04:39:25;96231.94;;;20.04;83.77
22755;BME280;11544;42.020;23.094;2022-09-17T04:41:51;96217.59;;;20.06;82.61
22755;BME280;11544;42.020;23.094;2022-09-17T04:44:16;96234.41;;;20.05;84.16
22755;BME280;11544;42.020;23.094;2022-09-17T04:46:43;96235.66;;;19.92;87.22
22755;BME280;11544;42.020;23.094;2022-09-17T04:49:08;96240.06;;;20.32;83.12
22755;BME280;11544;42.020;23.094;2022-09-17T04:51:34;96239.59;;;20.17;83.80
22755;BME280;11544;42.020;23.094;2022-09-17T04:54:00;96247.41;;;20.38;83.68
22755;BME280;11544;42.020;23.094;2022-09-17T04:56:25;96242.69;;;20.32;83.64
22755;BME280;11544;42.020;23.094;2022-09-17T04:58:51;96254.00;;;20.53;83.86
22755;BME280;11544;42.020;23.094;2022-09-17T05:01:17;96269.47;;;20.58;84.84
22755;BME280;11544;42.020;23.094;2022-09-17T05:03:45;96286.19;;;20.68;84.58
22755;BME280;11544;42.020;23.094;2022-09-17T05:06:11;96295.84;;;20.19;89.19
22755;BME280;11544;42.020;23.094;2022-09-17T05:08:37;96264.69;;;20.22;90.36
22755;BME280;11544;42.020;23.094;2022-09-17T05:11:03;96225.94;;;20.12;93.70
22755;BME280;11544;42.020;23.094;2022-09-17T05:13:29;96248.38;;;20.17;95.51
22755;BME280;11544;42.020;23.094;2022-09-17T05:15:55;96259.22;;;20.14;99.12
22755;BME280;11544;42.020;23.094;2022-09-17T05:18:24;96281.31;;;19.94;100.00
22755;BME280;11544;42.020;23.094;2022-09-17T05:20:50;96294.38;;;19.85;100.00
22755;BME280;11544;42.020;23.094;2022-09-17T05:23:16;96292.25;;;20.20;100.00
22755;BME280;11544;42.020;23.094;2022-09-17T05:25:43;96278.25;;;20.58;100.00
22755;BME280;11544;42.020;23.094;2022-09-17T05:28:08;96281.31;;;20.73;100.00
22755;BME280;11544;42.020;23.094;2022-09-17T05:30:34;96292.31;;;20.59;100.00
22755;BME280;11544;42.020;23.094;2022-09-17T05:33:04;96298.81;;;20.35;100.00
22755;BME280;11544;42.020;23.094;2022-09-17T05:35:33;96299.56;;;20.66;100.00
22755;BME280;11544;42.020;23.094;2022-09-17T05:38:03;96309.03;;;20.69;100.00
22755;BME280;11544;42.020;23.094;2022-09-17T05:40:30;96297.19;;;20.73;100.00
22755;BME280;11544;42.020;23.094;2022-09-17T05:43:02;96309.50;;;20.74;100.00
22755;BME280;11544;42.020;23.094;2022-09-17T05:45:28;96306.00;;;20.93;100.00
22755;BME280;11544;42.020;23.094;2022-09-17T05:47:55;96300.41;;;20.86;100.00
22755;BME280;11544;42.020;23.094;2022-09-17T05:50:21;96284.22;;;20.89;100.00
22755;BME280;11544;42.020;23.094;2022-09-17T05:52:48;96279.94;;;20.88;100.00
22755;BME280;11544;42.020;23.094;2022-09-17T05:55:14;96272.97;;;20.68;100.00
22755;BME280;11544;42.020;23.094;2022-09-17T05:57:40;96268.47;;;20.88;100.00
22755;BME280;11544;42.020;23.094;2022-09-17T06:00:06;96281.88;;;20.86;100.00
22755;BME280;11544;42.020;23.094;2022-09-17T06:02:40;96292.31;;;20.78;100.00
22755;BME280;11544;42.020;23.094;2022-09-17T06:05:06;96295.66;;;20.90;100.00
22755;BME280;11544;42.020;23.094;2022-09-17T06:07:34;96294.84;;;20.80;100.00
22755;BME280;11544;42.020;23.094;2022-09-17T06:10:05;96290.25;;;20.62;100.00
22755;BME280;11544;42.020;23.094;2022-09-17T06:12:32;96298.44;;;20.79;100.00
22755;BME280;11544;42.020;23.094;2022-09-17T06:15:00;96305.44;;;20.80;100.00
22755;BME280;11544;42.020;23.094;2022-09-17T06:17:26;96288.97;;;20.76;100.00
22755;BME280;11544;42.020;23.094;2022-09-17T06:19:51;96298.44;;;20.79;100.00
22755;BME280;11544;42.020;23.094;2022-09-17T06:22:18;96301.25;;;20.87;100.00
22755;BME280;11544;42.020;23.094;2022-09-17T06:24:44;96294.00;;;20.79;100.00
22755;BME280;11544;42.020;23.094;2022-09-17T06:27:10;96267.22;;;20.82;100.00
22755;BME280;11544;42.020;23.094;2022-09-17T06:29:36;96265.53;;;21.01;100.00
22755;BME280;11544;42.020;23.094;2022-09-17T06:32:02;96271.34;;;21.14;100.00
22755;BME280;11544;42.020;23.094;2022-09-17T06:34:27;96260.19;;;21.20;100.00
22755;BME280;11544;42.020;23.094;2022-09-17T06:36:53;96253.03;;;21.50;100.00
22755;BME280;11544;42.020;23.094;2022-09-17T06:39:19;96245.63;;;21.53;100.00
22755;BME280;11544;42.020;23.094;2022-09-17T06:41:44;96249.03;;;21.73;100.00
22755;BME280;11544;42.020;23.094;2022-09-17T06:44:10;96243.06;;;22.17;100.00
22755;BME280;11544;42.020;23.094;2022-09-17T06:46:36;96230.19;;;22.58;96.32
22755;BME280;11544;42.020;23.094;2022-09-17T06:49:02;96192.94;;;23.80;89.53
22755;BME280;11544;42.020;23.094;2022-09-17T06:51:27;96173.41;;;24.22;84.79
22755;BME280;11544;42.020;23.094;2022-09-17T06:53:53;96167.78;;;24.75;80.98
22755;BME280;11544;42.020;23.094;2022-09-17T06:56:19;96178.69;;;23.90;82.69
22755;BME280;11544;42.020;23.094;2022-09-17T06:58:44;96179.09;;;25.01;79.58
22755;BME280;11544;42.020;23.094;2022-09-17T07:01:12;96159.31;;;24.71;78.98
22755;BME280;11544;42.020;23.094;2022-09-17T07:03:38;96155.81;;;24.70;75.91
22755;BME280;11544;42.020;23.094;2022-09-17T07:06:08;96155.63;;;24.31;77.39
22755;BME280;11544;42.020;23.094;2022-09-17T07:08:35;96162.13;;;23.70;81.18
22755;BME280;11544;42.020;23.094;2022-09-17T07:11:01;96156.78;;;24.20;79.56
22755;BME280;11544;42.020;23.094;2022-09-17T07:13:27;96144.16;;;24.55;76.46
22755;BME280;11544;42.020;23.094;2022-09-17T07:15:57;96145.00;;;25.44;72.62
22755;BME280;11544;42.020;23.094;2022-09-17T07:18:23;96147.84;;;24.62;74.90
22755;BME280;11544;42.020;23.094;2022-09-17T07:20:53;96148.50;;;25.45;74.65
22755;BME280;11544;42.020;23.094;2022-09-17T07:23:21;96148.19;;;26.10;69.29
22755;BME280;11544;42.020;23.094;2022-09-17T07:25:52;96141.25;;;26.70;67.12
22755;BME280;11544;42.020;23.094;2022-09-17T07:28:18;96159.53;;;27.11;66.41
22755;BME280;11544;42.020;23.094;2022-09-17T07:30:44;96151.22;;;26.91;64.54
22755;BME280;11544;42.020;23.094;2022-09-17T07:33:10;96149.03;;;26.57;65.92
22755;BME280;11544;42.020;23.094;2022-09-17T07:35:36;96135.91;;;25.62;69.05
22755;BME280;11544;42.020;23.094;2022-09-17T07:38:01;96109.13;;;26.32;67.74
22755;BME280;11544;42.020;23.094;2022-09-17T07:40:27;96108.81;;;26.50;68.57
22755;BME280;11544;42.020;23.094;2022-09-17T07:42:56;96111.69;;;26.03;67.48
22755;BME280;11544;42.020;23.094;2022-09-17T07:45:23;96101.84;;;27.17;65.11
22755;BME280;11544;42.020;23.094;2022-09-17T07:47:51;96112.06;;;26.98;65.11
22755;BME280;11544;42.020;23.094;2022-09-17T07:50:16;96112.97;;;26.91;65.93
22755;BME280;11544;42.020;23.094;2022-09-17T07:52:46;96122.59;;;26.62;68.25
22755;BME280;11544;42.020;23.094;2022-09-17T07:55:12;96137.31;;;26.35;69.73
22755;BME280;11544;42.020;23.094;2022-09-17T07:57:38;96143.47;;;25.81;71.85
22755;BME280;11544;42.020;23.094;2022-09-17T08:00:05;96145.03;;;25.75;73.17
22755;BME280;11544;42.020;23.094;2022-09-17T08:02:36;96128.47;;;25.49;72.25
22755;BME280;11544;42.020;23.094;2022-09-17T08:05:02;96133.25;;;25.22;73.22
22755;BME280;11544;42.020;23.094;2022-09-17T08:07:28;96127.16;;;25.45;71.72
22755;BME280;11544;42.020;23.094;2022-09-17T08:09:54;96119.09;;;25.05;71.53
22755;BME280;11544;42.020;23.094;2022-09-17T08:12:20;96115.75;;;25.11;70.56
22755;BME280;11544;42.020;23.094;2022-09-17T08:14:47;96112.94;;;24.97;71.80
22755;BME280;11544;42.020;23.094;2022-09-17T08:17:13;96103.75;;;25.24;69.70
22755;BME280;11544;42.020;23.094;2022-09-17T08:19:38;96096.84;;;25.38;69.36
22755;BME280;11544;42.020;23.094;2022-09-17T08:22:04;96097.31;;;25.41;69.64
22755;BME280;11544;42.020;23.094;2022-09-17T08:24:30;96093.22;;;25.30;70.35
22755;BME280;11544;42.020;23.094;2022-09-17T08:26:56;96093.97;;;25.47;68.09
22755;BME280;11544;42.020;23.094;2022-09-17T08:29:21;96101.91;;;25.55;65.75
22755;BME280;11544;42.020;23.094;2022-09-17T08:31:47;96099.78;;;25.51;66.33
22755;BME280;11544;42.020;23.094;2022-09-17T08:34:13;96101.00;;;25.40;67.47
22755;BME280;11544;42.020;23.094;2022-09-17T08:36:39;96101.53;;;25.35;68.70
22755;BME280;11544;42.020;23.094;2022-09-17T08:39:04;96105.31;;;25.02;71.27
22755;BME280;11544;42.020;23.094;2022-09-17T08:46:51;96086.03;;;24.83;71.51
22755;BME280;11544;42.020;23.094;2022-09-17T09:00:13;96118.00;;;24.34;81.39
22755;BME280;11544;42.020;23.094;2022-09-17T09:05:19;96133.47;;;24.22;82.59
22755;BME280;11544;42.020;23.094;2022-09-17T09:07:54;96132.97;;;24.11;81.10
22755;BME280;11544;42.020;23.094;2022-09-17T09:10:25;96137.16;;;24.29;80.22
22755;BME280;11544;42.020;23.094;2022-09-17T09:12:53;96147.59;;;24.06;80.46
22755;BME280;11544;42.020;23.094;2022-09-17T09:15:25;96158.75;;;24.10;80.39
22755;BME280;11544;42.020;23.094;2022-09-17T09:18:00;96181.34;;;23.90;81.67
22755;BME280;11544;42.020;23.094;2022-09-17T09:20:36;96208.09;;;23.80;84.70
22755;BME280;11544;42.020;23.094;2022-09-17T09:23:19;96248.72;;;23.64;89.59
22755;BME280;11544;42.020;23.094;2022-09-17T09:26:02;96329.97;;;23.32;95.24
22755;BME280;11544;42.020;23.094;2022-09-17T09:33:50;96440.56;;;21.38;100.00
22755;BME280;11544;42.020;23.094;2022-09-17T09:36:17;96455.47;;;21.00;100.00
22755;BME280;11544;42.020;23.094;2022-09-17T09:39:02;96469.66;;;20.99;100.00
22755;BME280;11544;42.020;23.094;2022-09-17T09:41:41;96483.94;;;20.58;100.00
22755;BME280;11544;42.020;23.094;2022-09-17T09:44:15;96494.13;;;20.41;100.00
22755;BME280;11544;42.020;23.094;2022-09-17T09:49:46;96527.19;;;20.26;100.00
22755;BME280;11544;42.020;23.094;2022-09-17T09:55:41;96523.09;;;20.64;100.00
22755;BME280;11544;42.020;23.094;2022-09-17T10:00:52;96523.41;;;20.70;100.00
22755;BME280;11544;42.020;23.094;2022-09-17T10:03:19;96529.09;;;20.66;100.00
22755;BME280;11544;42.020;23.094;2022-09-17T10:06:00;96509.13;;;20.62;100.00
22755;BME280;11544;42.020;23.094;2022-09-17T10:08:28;96481.28;;;20.58;100.00
22755;BME280;11544;42.020;23.094;2022-09-17T10:13:33;96434.53;;;20.47;100.00
22755;BME280;11544;42.020;23.094;2022-09-17T10:16:15;96433.66;;;20.37;100.00
22755;BME280;11544;42.020;23.094;2022-09-17T10:18:46;96445.22;;;20.45;100.00
22755;BME280;11544;42.020;23.094;2022-09-17T10:21:20;96458.84;;;20.62;100.00
22755;BME280;11544;42.020;23.094;2022-09-17T10:23:46;96462.03;;;20.56;100.00
22755;BME280;11544;42.020;23.094;2022-09-17T10:26:24;96460.56;;;20.42;100.00
22755;BME280;11544;42.020;23.094;2022-09-17T10:28:56;96458.25;;;20.18;100.00
22755;BME280;11544;42.020;23.094;2022-09-17T10:31:23;96442.31;;;20.39;100.00
22755;BME280;11544;42.020;23.094;2022-09-17T10:34:01;96425.41;;;20.30;100.00
22755;BME280;11544;42.020;23.094;2022-09-17T10:36:42;96414.72;;;20.41;100.00
22755;BME280;11544;42.020;23.094;2022-09-17T10:39:30;96396.75;;;20.45;100.00
22755;BME280;11544;42.020;23.094;2022-09-17T10:42:17;96384.41;;;20.55;100.00
22755;BME280;11544;42.020;23.094;2022-09-17T10:44:56;96370.88;;;20.48;100.00
22755;BME280;11544;42.020;23.094;2022-09-17T10:47:28;96337.34;;;20.68;100.00
22755;BME280;11544;42.020;23.094;2022-09-17T10:50:01;96340.69;;;20.61;100.00
22755;BME280;11544;42.020;23.094;2022-09-17T10:52:31;96334.41;;;20.71;100.00
22755;BME280;11544;42.020;23.094;2022-09-17T10:58:14;96331.63;;;20.92;100.00
22755;BME280;11544;42.020;23.094;2022-09-17T11:03:33;96304.41;;;21.29;100.00
22755;BME280;11544;42.020;23.094;2022-09-17T11:28:03;96336.78;;;21.13;100.00
22755;BME280;11544;42.020;23.094;2022-09-17T11:30:44;96359.94;;;20.92;100.00
22755;BME280;11544;42.020;23.094;2022-09-17T11:36:21;96328.16;;;20.82;100.00
22755;BME280;11544;42.020;23.094;2022-09-17T11:38:50;96340.69;;;20.70;100.00
22755;BME280;11544;42.020;23.094;2022-09-17T11:41:26;96334.41;;;21.01;100.00
22755;BME280;11544;42.020;23.094;2022-09-17T11:44:26;96333.44;;;20.92;100.00
22755;BME280;11544;42.020;23.094;2022-09-17T11:49:53;96332.03;;;20.59;100.00
22755;BME280;11544;42.020;23.094;2022-09-17T11:52:27;96333.69;;;20.60;100.00
22755;BME280;11544;42.020;23.094;2022-09-17T11:55:01;96321.19;;;20.81;100.00
22755;BME280;11544;42.020;23.094;2022-09-17T11:57:32;96290.34;;;21.09;100.00
22755;BME280;11544;42.020;23.094;2022-09-17T12:05:24;96288.66;;;21.18;100.00
22755;BME280;11544;42.020;23.094;2022-09-17T12:07:59;96290.72;;;21.34;100.00
22755;BME280;11544;42.020;23.094;2022-09-17T12:10:36;96280.94;;;21.34;100.00
22755;BME280;11544;42.020;23.094;2022-09-17T12:15:56;96282.06;;;21.32;100.00
22755;BME280;11544;42.020;23.094;2022-09-17T12:21:39;96284.06;;;21.10;100.00
22755;BME280;11544;42.020;23.094;2022-09-17T12:24:32;96256.94;;;21.46;100.00
22755;BME280;11544;42.020;23.094;2022-09-17T12:27:03;96254.13;;;21.57;100.00
22755;BME280;11544;42.020;23.094;2022-09-17T12:41:05;96239.00;;;21.67;100.00
22755;BME280;11544;42.020;23.094;2022-09-17T12:46:26;96219.00;;;21.73;100.00
22755;BME280;11544;42.020;23.094;2022-09-17T12:59:21;96178.00;;;21.95;100.00
22755;BME280;11544;42.020;23.094;2022-09-17T13:02:23;96186.59;;;21.79;100.00
22755;BME280;11544;42.020;23.094;2022-09-17T13:05:02;96181.66;;;21.84;100.00
22755;BME280;11544;42.020;23.094;2022-09-17T13:12:52;96163.63;;;21.70;100.00
22755;BME280;11544;42.020;23.094;2022-09-17T13:15:34;96172.81;;;21.48;100.00
22755;BME280;11544;42.020;23.094;2022-09-17T13:21:10;96150.56;;;21.21;100.00
22755;BME280;11544;42.020;23.094;2022-09-17T13:23:43;96138.16;;;21.59;100.00
22755;BME280;11544;42.020;23.094;2022-09-17T13:26:15;96141.28;;;21.45;100.00
22755;BME280;11544;42.020;23.094;2022-09-17T13:28:45;96140.81;;;21.22;100.00
22755;BME280;11544;42.020;23.094;2022-09-17T13:31:12;96133.50;;;21.33;100.00
22755;BME280;11544;42.020;23.094;2022-09-17T13:33:51;96150.59;;;21.11;100.00
22755;BME280;11544;42.020;23.094;2022-09-17T13:36:48;96207.34;;;21.19;100.00
22755;BME280;11544;42.020;23.094;2022-09-17T13:39:37;96240.75;;;20.82;100.00
22755;BME280;11544;42.020;23.094;2022-09-17T13:42:21;96247.97;;;21.00;100.00
22755;BME280;11544;42.020;23.094;2022-09-17T13:47:38;96213.47;;;20.72;100.00
22755;BME280;11544;42.020;23.094;2022-09-17T13:50:07;96218.88;;;20.51;100.00
22755;BME280;11544;42.020;23.094;2022-09-17T13:52:41;96211.06;;;20.30;100.00
22755;BME280;11544;42.020;23.094;2022-09-17T13:55:30;96220.94;;;20.18;100.00
22755;BME280;11544;42.020;23.094;2022-09-17T13:57:56;96204.50;;;20.15;100.00
22755;BME280;11544;42.020;23.094;2022-09-17T14:16:44;96211.56;;;19.75;100.00
22755;BME280;11544;42.020;23.094;2022-09-17T14:24:59;96239.13;;;19.82;100.00
22755;BME280;11544;42.020;23.094;2022-09-17T14:27:50;96225.03;;;19.72;100.00
22755;BME280;11544;42.020;23.094;2022-09-17T14:30:25;96204.91;;;19.50;100.00
22755;BME280;11544;42.020;23.094;2022-09-17T14:33:15;96189.88;;;19.51;100.00
22755;BME280;11544;42.020;23.094;2022-09-17T14:35:48;96191.75;;;19.70;100.00
22755;BME280;11544;42.020;23.094;2022-09-17T14:38:23;96191.75;;;19.70;100.00
22755;BME280;11544;42.020;23.094;2022-09-17T14:41:21;96157.97;;;19.73;100.00
22755;BME280;11544;42.020;23.094;2022-09-17T14:43:53;96122.91;;;19.91;100.00
22755;BME280;11544;42.020;23.094;2022-09-17T14:49:21;96048.19;;;19.88;100.00
22755;BME280;11544;42.020;23.094;2022-09-17T14:51:49;96035.34;;;19.94;100.00
22755;BME280;11544;42.020;23.094;2022-09-17T14:54:20;96017.53;;;19.96;100.00
22755;BME280;11544;42.020;23.094;2022-09-17T14:57:01;96015.06;;;19.75;100.00
22755;BME280;11544;42.020;23.094;2022-09-17T15:02:37;96007.09;;;20.14;100.00
22755;BME280;11544;42.020;23.094;2022-09-17T15:05:35;96008.53;;;20.36;100.00
22755;BME280;11544;42.020;23.094;2022-09-17T15:10:47;96016.81;;;20.23;100.00
22755;BME280;11544;42.020;23.094;2022-09-17T15:13:17;96039.28;;;19.99;100.00
22755;BME280;11544;42.020;23.094;2022-09-17T15:18:54;96032.94;;;20.39;100.00
22755;BME280;11544;42.020;23.094;2022-09-17T15:24:13;96016.88;;;20.60;100.00
22755;BME280;11544;42.020;23.094;2022-09-17T15:26:42;96045.84;;;20.52;100.00
22755;BME280;11544;42.020;23.094;2022-09-17T15:29:13;96051.31;;;20.31;100.00
22755;BME280;11544;42.020;23.094;2022-09-17T15:31:39;96042.09;;;20.45;100.00
22755;BME280;11544;42.020;23.094;2022-09-17T15:34:08;96081.44;;;19.91;100.00
22755;BME280;11544;42.020;23.094;2022-09-17T15:36:34;96104.19;;;19.63;100.00
22755;BME280;11544;42.020;23.094;2022-09-17T15:39:29;96128.75;;;19.75;100.00
22755;BME280;11544;42.020;23.094;2022-09-17T15:41:56;96137.78;;;19.72;100.00
22755;BME280;11544;42.020;23.094;2022-09-17T15:44:23;96123.19;;;19.68;100.00
22755;BME280;11544;42.020;23.094;2022-09-17T15:46:54;96119.03;;;19.75;100.00
22755;BME280;11544;42.020;23.094;2022-09-17T15:49:33;96119.56;;;19.98;100.00
22755;BME280;11544;42.020;23.094;2022-09-17T15:52:28;96103.00;;;20.16;100.00
22755;BME280;11544;42.020;23.094;2022-09-17T15:54:57;96100.81;;;19.92;100.00
22755;BME280;11544;42.020;23.094;2022-09-17T15:57:23;96083.66;;;19.76;100.00
22755;BME280;11544;42.020;23.094;2022-09-17T15:59:50;96093.47;;;19.35;100.00
22755;BME280;11544;42.020;23.094;2022-09-17T16:02:30;96079.78;;;19.20;100.00
22755;BME280;11544;42.020;23.094;2022-09-17T16:07:43;96047.56;;;19.36;100.00
22755;BME280;11544;42.020;23.094;2022-09-17T16:10:10;96032.00;;;19.43;100.00
22755;BME280;11544;42.020;23.094;2022-09-17T16:12:36;96018.25;;;19.39;100.00